createdAt,value
2018-11-05T00:00:38.605Z,66.20
2018-11-05T00:01:38.561Z,60.60
2018-11-05T00:02:38.547Z,74.00
2018-11-05T00:03:38.537Z,64.20
2018-11-05T00:04:38.526Z,68.00
2018-11-05T00:05:38.542Z,68.30
2018-11-05T00:06:38.510Z,68.70
2018-11-05T00:07:38.493Z,72.80
2018-11-05T00:08:38.487Z,68.00
2018-11-05T00:09:38.476Z,74.10
2018-11-05T00:10:38.482Z,75.10
2018-11-05T00:11:38.456Z,70.80
2018-11-05T00:12:38.453Z,73.90
2018-11-05T00:13:38.436Z,75.50
2018-11-05T00:14:38.427Z,68.60
2018-11-05T00:15:38.437Z,83.00
2018-11-05T00:16:38.413Z,74.40
2018-11-05T00:17:38.395Z,84.40
2018-11-05T00:18:38.377Z,79.50
2018-11-05T00:19:38.366Z,80.40
2018-11-05T00:20:38.374Z,81.40
2018-11-05T00:21:38.351Z,82.90
2018-11-05T00:22:38.348Z,82.40
2018-11-05T00:23:38.341Z,77.20
2018-11-05T00:24:38.321Z,78.60
2018-11-05T00:25:38.337Z,75.30
2018-11-05T00:26:38.292Z,81.80
2018-11-05T00:27:38.293Z,78.50
2018-11-05T00:28:38.278Z,77.70
2018-11-05T00:29:38.258Z,82.80
2018-11-05T00:30:38.255Z,79.10
2018-11-05T00:31:38.258Z,74.00
2018-11-05T00:32:38.225Z,83.20
2018-11-05T00:33:38.212Z,81.60
2018-11-05T00:34:38.204Z,81.90
2018-11-05T00:35:38.198Z,78.20
2018-11-05T00:36:38.219Z,74.30
2018-11-05T00:37:38.184Z,78.10
2018-11-05T00:38:38.190Z,76.90
2018-11-05T00:39:38.152Z,80.40
2018-11-05T00:40:38.137Z,84.00
2018-11-05T00:41:38.156Z,90.10
2018-11-05T00:42:38.119Z,90.50
2018-11-05T00:43:38.107Z,87.90
2018-11-05T00:44:38.104Z,86.60
2018-11-05T00:45:38.131Z,92.10
2018-11-05T00:46:38.094Z,83.90
2018-11-05T00:47:38.072Z,80.90
2018-11-05T00:48:38.052Z,98.00
2018-11-05T00:49:38.060Z,96.90
2018-11-05T00:50:38.034Z,82.40
2018-11-05T00:51:38.047Z,93.80
2018-11-05T00:52:38.028Z,107.30
2018-11-05T00:53:38.001Z,94.50
2018-11-05T00:54:38.015Z,93.00
2018-11-05T00:55:38.034Z,87.40
2018-11-05T00:56:37.982Z,94.90
2018-11-05T00:57:37.978Z,101.30
2018-11-05T00:58:37.965Z,93.70
2018-11-05T00:59:37.935Z,105.10
2018-11-05T01:00:37.929Z,109.40
2018-11-05T01:01:37.955Z,109.80
2018-11-05T01:02:37.901Z,95.50
2018-11-05T01:03:37.893Z,95.20
2018-11-05T01:04:37.883Z,106.60
2018-11-05T01:05:37.872Z,108.70
2018-11-05T01:06:37.899Z,97.60
2018-11-05T01:07:37.875Z,111.20
2018-11-05T01:08:37.841Z,104.70
2018-11-05T01:09:37.834Z,105.30
2018-11-05T01:10:37.829Z,100.60
2018-11-05T01:11:37.851Z,98.50
2018-11-05T01:12:37.842Z,100.40
2018-11-05T01:13:37.784Z,100.70
2018-11-05T01:14:37.775Z,108.70
2018-11-05T01:15:37.765Z,102.60
2018-11-05T01:16:37.776Z,103.70
2018-11-05T01:17:37.803Z,100.80
2018-11-05T01:18:37.749Z,104.60
2018-11-05T01:19:37.724Z,104.40
2018-11-05T01:20:37.705Z,112.30
2018-11-05T01:21:37.695Z,103.30
2018-11-05T01:22:37.727Z,105.70
2018-11-05T01:23:37.670Z,101.20
2018-11-05T01:24:37.660Z,101.60
2018-11-05T01:25:37.654Z,109.20
2018-11-05T01:26:37.654Z,103.70
2018-11-05T01:27:37.656Z,103.60
2018-11-05T01:28:37.619Z,108.10
2018-11-05T01:29:37.612Z,117.60
2018-11-05T01:30:37.608Z,100.90
2018-11-05T01:31:37.597Z,122.30
2018-11-05T01:32:37.606Z,113.80
2018-11-05T01:33:37.567Z,115.60
2018-11-05T01:34:37.563Z,100.20
2018-11-05T01:35:37.543Z,102.70
2018-11-05T01:36:37.535Z,108.50
2018-11-05T01:37:37.544Z,104.30
2018-11-05T01:38:37.528Z,113.40
2018-11-05T01:39:37.540Z,108.10
2018-11-05T01:40:37.506Z,100.40
2018-11-05T01:41:37.493Z,103.30
2018-11-05T01:42:37.493Z,114.10
2018-11-05T01:43:37.475Z,99.70
2018-11-05T01:44:37.454Z,108.40
2018-11-05T01:45:37.484Z,98.80
2018-11-05T01:46:37.434Z,98.50
2018-11-05T01:47:37.431Z,104.90
2018-11-05T01:48:37.420Z,103.90
2018-11-05T01:49:37.396Z,93.00
2018-11-05T01:50:37.408Z,98.00
2018-11-05T01:51:37.412Z,108.10
2018-11-05T01:52:37.408Z,100.00
2018-11-05T01:53:37.351Z,92.50
2018-11-05T01:54:37.340Z,98.80
2018-11-05T01:55:37.332Z,110.90
2018-11-05T01:56:37.339Z,108.30
2018-11-05T01:57:37.305Z,100.00
2018-11-05T01:58:37.310Z,103.30
2018-11-05T01:59:37.290Z,105.80
2018-11-05T02:00:37.280Z,98.10
2018-11-05T02:01:37.264Z,110.40
2018-11-05T02:02:37.252Z,106.10
2018-11-05T02:03:37.263Z,115.60
2018-11-05T02:04:37.231Z,96.30
2018-11-05T02:05:37.218Z,101.50
2018-11-05T02:06:37.202Z,106.60
2018-11-05T02:07:37.197Z,110.70
2018-11-05T02:08:37.214Z,106.50
2018-11-05T02:09:37.180Z,96.90
2018-11-05T02:10:37.169Z,105.20
2018-11-05T02:11:37.149Z,114.70
2018-11-05T02:12:37.145Z,111.70
2018-11-05T02:13:37.155Z,119.90
2018-11-05T02:14:37.118Z,118.60
2018-11-05T02:15:37.108Z,119.30
2018-11-05T02:16:37.098Z,125.20
2018-11-05T02:17:37.084Z,112.30
2018-11-05T02:18:37.101Z,109.90
2018-11-05T02:19:37.063Z,107.40
2018-11-05T02:20:37.090Z,122.40
2018-11-05T02:21:37.062Z,110.90
2018-11-05T02:22:37.031Z,101.50
2018-11-05T02:23:37.053Z,115.10
2018-11-05T02:24:37.028Z,116.40
2018-11-05T02:25:37.006Z,129.20
2018-11-05T02:26:37.003Z,116.10
2018-11-05T02:27:36.981Z,107.40
2018-11-05T02:28:37.012Z,115.60
2018-11-05T02:29:36.955Z,116.60
2018-11-05T02:30:36.947Z,120.80
2018-11-05T02:31:36.939Z,132.40
2018-11-05T02:32:36.925Z,112.90
2018-11-05T02:33:36.913Z,141.00
2018-11-05T02:34:36.919Z,133.10
2018-11-05T02:35:36.898Z,117.60
2018-11-05T02:36:36.878Z,143.80
2018-11-05T02:37:36.870Z,153.10
2018-11-05T02:38:36.853Z,143.00
2018-11-05T02:39:36.867Z,126.90
2018-11-05T02:40:36.833Z,126.00
2018-11-05T02:41:36.838Z,143.70
2018-11-05T02:42:36.823Z,116.60
2018-11-05T02:43:36.798Z,117.30
2018-11-05T02:44:36.807Z,120.00
2018-11-05T02:45:36.785Z,127.90
2018-11-05T02:46:36.765Z,111.20
2018-11-05T02:47:36.760Z,108.20
2018-11-05T02:48:36.751Z,111.90
2018-11-05T02:49:36.772Z,111.00
2018-11-05T02:50:36.738Z,107.80
2018-11-05T02:51:36.717Z,106.40
2018-11-05T02:52:36.700Z,119.00
2018-11-05T02:53:36.694Z,115.40
2018-11-05T02:54:36.717Z,120.30
2018-11-05T02:55:36.672Z,110.70
2018-11-05T02:56:36.712Z,109.20
2018-11-05T02:57:36.645Z,101.30
2018-11-05T02:58:36.640Z,96.70
2018-11-05T02:59:36.644Z,95.70
2018-11-05T03:00:36.621Z,92.20
2018-11-05T03:01:36.603Z,114.20
2018-11-05T03:02:36.632Z,112.10
2018-11-05T03:03:36.586Z,108.90
2018-11-05T03:04:36.598Z,110.30
2018-11-05T03:05:36.564Z,103.30
2018-11-05T03:06:36.556Z,118.30
2018-11-05T03:07:36.539Z,106.20
2018-11-05T03:08:36.527Z,96.70
2018-11-05T03:09:36.542Z,105.00
2018-11-05T03:10:36.502Z,97.90
2018-11-05T03:11:36.496Z,115.30
2018-11-05T03:12:36.486Z,104.20
2018-11-05T03:13:36.479Z,100.40
2018-11-05T03:14:36.497Z,97.40
2018-11-05T03:15:36.466Z,105.00
2018-11-05T03:16:36.446Z,105.30
2018-11-05T03:17:36.436Z,103.40
2018-11-05T03:18:36.415Z,100.00
2018-11-05T03:19:36.411Z,123.30
2018-11-05T03:20:36.422Z,97.20
2018-11-05T03:21:36.383Z,103.40
2018-11-05T03:22:36.402Z,122.80
2018-11-05T03:23:36.383Z,108.60
2018-11-05T03:24:36.348Z,107.70
2018-11-05T03:25:36.403Z,114.00
2018-11-05T03:26:36.329Z,114.40
2018-11-05T03:27:36.318Z,111.60
2018-11-05T03:28:36.365Z,107.50
2018-11-05T03:29:36.303Z,106.20
2018-11-05T03:30:36.299Z,104.00
2018-11-05T03:31:36.285Z,106.00
2018-11-05T03:32:36.286Z,90.90
2018-11-05T03:33:36.259Z,99.50
2018-11-05T03:34:36.237Z,97.90
2018-11-05T03:35:36.311Z,90.00
2018-11-05T03:36:36.233Z,97.20
2018-11-05T03:37:36.206Z,96.30
2018-11-05T03:38:36.207Z,92.20
2018-11-05T03:39:36.195Z,106.30
2018-11-05T03:40:36.208Z,103.80
2018-11-05T03:41:36.161Z,106.40
2018-11-05T03:42:36.153Z,93.60
2018-11-05T03:43:36.145Z,94.80
2018-11-05T03:44:36.140Z,98.10
2018-11-05T03:45:36.142Z,103.70
2018-11-05T03:46:36.110Z,98.00
2018-11-05T03:47:36.101Z,100.30
2018-11-05T03:48:36.095Z,109.00
2018-11-05T03:49:36.099Z,102.60
2018-11-05T03:50:36.088Z,105.70
2018-11-05T03:51:36.050Z,97.80
2018-11-05T03:52:36.053Z,92.50
2018-11-05T03:53:36.039Z,95.90
2018-11-05T03:54:36.033Z,92.20
2018-11-05T03:55:36.133Z,89.80
2018-11-05T03:56:36.064Z,88.60
2018-11-05T03:57:35.992Z,92.40
2018-11-05T03:58:36.006Z,83.90
2018-11-05T03:59:35.967Z,95.40
2018-11-05T04:00:35.982Z,92.20
2018-11-05T04:01:35.947Z,92.60
2018-11-05T04:02:35.939Z,99.90
2018-11-05T04:03:35.923Z,92.50
2018-11-05T04:04:35.921Z,97.40
2018-11-05T04:05:35.916Z,112.20
2018-11-05T04:06:35.949Z,106.70
2018-11-05T04:07:35.878Z,107.60
2018-11-05T04:08:35.882Z,121.70
2018-11-05T04:09:35.857Z,123.40
2018-11-05T04:10:35.848Z,109.40
2018-11-05T04:11:35.856Z,118.20
2018-11-05T04:12:35.823Z,129.40
2018-11-05T04:13:35.828Z,137.40
2018-11-05T04:14:35.799Z,102.10
2018-11-05T04:15:35.901Z,105.80
2018-11-05T04:16:35.809Z,104.90
2018-11-05T04:17:35.768Z,129.10
2018-11-05T04:18:35.779Z,122.10
2018-11-05T04:19:35.755Z,120.70
2018-11-05T04:20:35.738Z,99.00
2018-11-05T04:21:35.743Z,127.10
2018-11-05T04:22:35.732Z,133.80
2018-11-05T04:23:35.715Z,136.70
2018-11-05T04:24:35.704Z,102.10
2018-11-05T04:25:35.688Z,103.90
2018-11-05T04:26:35.695Z,88.80
2018-11-05T04:27:35.710Z,99.40
2018-11-05T04:28:35.666Z,104.70
2018-11-05T04:29:35.638Z,117.10
2018-11-05T04:30:35.633Z,101.70
2018-11-05T04:31:35.656Z,109.30
2018-11-05T04:32:35.607Z,99.60
2018-11-05T04:33:35.603Z,102.70
2018-11-05T04:34:35.581Z,109.30
2018-11-05T04:35:35.571Z,129.20
2018-11-05T04:36:35.591Z,117.30
2018-11-05T04:37:35.566Z,100.00
2018-11-05T04:38:35.551Z,155.50
2018-11-05T04:39:35.531Z,103.90
2018-11-05T04:40:35.520Z,126.60
2018-11-05T04:41:35.534Z,107.10
2018-11-05T04:42:35.507Z,126.50
2018-11-05T04:43:35.488Z,136.20
2018-11-05T04:44:35.475Z,120.50
2018-11-05T04:45:35.461Z,115.70
2018-11-05T04:46:35.488Z,86.80
2018-11-05T04:47:35.465Z,125.80
2018-11-05T04:48:35.437Z,85.50
2018-11-05T04:49:35.417Z,94.10
2018-11-05T04:50:35.431Z,87.30
2018-11-05T04:51:35.397Z,112.90
2018-11-05T04:52:35.421Z,100.10
2018-11-05T04:53:35.372Z,115.90
2018-11-05T04:54:35.362Z,95.10
2018-11-05T04:55:35.350Z,111.00
2018-11-05T04:56:35.341Z,77.00
2018-11-05T04:57:35.351Z,98.70
2018-11-05T04:58:35.319Z,93.00
2018-11-05T04:59:35.326Z,123.70
2018-11-05T05:00:35.299Z,102.50
2018-11-05T05:01:35.284Z,86.50
2018-11-05T05:02:35.328Z,93.90
2018-11-05T05:03:35.272Z,111.70
2018-11-05T05:04:35.282Z,79.90
2018-11-05T05:05:35.268Z,96.70
2018-11-05T05:06:35.247Z,89.30
2018-11-05T05:07:35.248Z,90.50
2018-11-05T05:08:35.208Z,71.50
2018-11-05T05:09:35.198Z,80.80
2018-11-05T05:10:35.183Z,98.10
2018-11-05T05:11:35.186Z,77.90
2018-11-05T05:12:35.190Z,78.30
2018-11-05T05:13:35.186Z,69.20
2018-11-05T05:14:35.140Z,71.00
2018-11-05T05:15:35.134Z,65.50
2018-11-05T05:16:35.128Z,68.80
2018-11-05T05:17:35.140Z,67.00
2018-11-05T05:18:35.096Z,63.10
2018-11-05T05:19:35.093Z,72.10
2018-11-05T05:20:35.130Z,70.90
2018-11-05T05:21:35.072Z,68.60
2018-11-05T05:22:35.224Z,72.50
2018-11-05T05:23:35.048Z,73.40
2018-11-05T05:24:35.031Z,73.40
2018-11-05T05:25:35.041Z,72.00
2018-11-05T05:26:35.017Z,75.50
2018-11-05T05:27:35.040Z,69.20
2018-11-05T05:28:34.989Z,77.60
2018-11-05T05:29:35.009Z,76.30
2018-11-05T05:30:34.966Z,75.20
2018-11-05T05:31:34.967Z,81.20
2018-11-05T05:32:34.955Z,67.40
2018-11-05T05:33:35.017Z,73.30
2018-11-05T05:34:34.923Z,67.60
2018-11-05T05:35:34.921Z,72.10
2018-11-05T05:36:34.900Z,69.60
2018-11-05T05:37:34.898Z,69.50
2018-11-05T05:38:34.919Z,71.20
2018-11-05T05:39:34.870Z,74.00
2018-11-05T05:40:34.861Z,82.60
2018-11-05T05:41:34.844Z,69.20
2018-11-05T05:42:34.836Z,71.40
2018-11-05T05:43:34.839Z,69.60
2018-11-05T05:44:34.841Z,81.50
2018-11-05T05:45:34.819Z,67.20
2018-11-05T05:46:34.795Z,71.80
2018-11-05T05:47:34.783Z,70.60
2018-11-05T05:48:34.790Z,82.60
2018-11-05T05:49:34.756Z,72.00
2018-11-05T05:50:34.753Z,69.80
2018-11-05T05:51:34.733Z,97.70
2018-11-05T05:52:34.732Z,86.30
2018-11-05T05:53:34.745Z,75.20
2018-11-05T05:54:34.757Z,70.50
2018-11-05T05:55:34.689Z,71.90
2018-11-05T05:56:34.682Z,74.40
2018-11-05T05:57:34.665Z,72.80
2018-11-05T05:58:34.700Z,69.00
2018-11-05T05:59:34.646Z,78.40
2018-11-05T06:00:34.664Z,95.30
2018-11-05T06:01:34.621Z,89.30
2018-11-05T06:02:34.638Z,99.60
2018-11-05T06:03:34.653Z,79.90
2018-11-05T06:04:34.592Z,74.70
2018-11-05T06:05:34.583Z,84.60
2018-11-05T06:06:34.708Z,112.70
2018-11-05T06:07:34.560Z,153.20
2018-11-05T06:08:34.570Z,140.00
2018-11-05T06:09:34.555Z,109.30
2018-11-05T06:10:34.533Z,89.70
2018-11-05T06:11:34.515Z,97.80
2018-11-05T06:12:34.508Z,81.50
2018-11-05T06:13:34.491Z,82.20
2018-11-05T06:14:34.505Z,82.70
2018-11-05T06:15:34.481Z,77.60
2018-11-05T06:16:34.489Z,76.90
2018-11-05T06:17:34.500Z,89.40
2018-11-05T06:18:34.446Z,81.90
2018-11-05T06:19:34.444Z,73.80
2018-11-05T06:20:34.421Z,99.80
2018-11-05T06:21:34.420Z,96.70
2018-11-05T06:22:34.407Z,99.60
2018-11-05T06:23:34.453Z,81.20
2018-11-05T06:24:34.407Z,75.60
2018-11-05T06:25:34.386Z,75.30
2018-11-05T06:26:34.388Z,65.60
2018-11-05T06:27:34.354Z,69.10
2018-11-05T06:28:34.462Z,70.60
2018-11-05T06:29:34.350Z,70.70
2018-11-05T06:30:34.313Z,70.30
2018-11-05T06:31:34.332Z,74.00
2018-11-05T06:32:34.286Z,67.70
2018-11-05T06:33:34.310Z,64.80
2018-11-05T06:34:34.302Z,68.70
2018-11-05T06:35:34.260Z,63.00
2018-11-05T06:36:34.257Z,64.60
2018-11-05T06:37:34.235Z,62.70
2018-11-05T06:38:34.224Z,63.30
2018-11-05T06:39:34.238Z,67.60
2018-11-05T06:40:34.209Z,70.10
2018-11-05T06:41:34.308Z,66.30
2018-11-05T06:42:34.180Z,62.30
2018-11-05T06:43:34.175Z,77.40
2018-11-05T06:44:34.211Z,82.60
2018-11-05T06:45:34.238Z,76.80
2018-11-05T06:46:34.141Z,76.10
2018-11-05T06:47:34.120Z,74.70
2018-11-05T06:48:34.113Z,92.60
2018-11-05T06:49:34.132Z,85.90
2018-11-05T06:50:34.085Z,88.50
2018-11-05T06:51:34.084Z,93.70
2018-11-05T06:52:34.109Z,74.40
2018-11-05T06:53:34.054Z,97.10
2018-11-05T06:54:34.041Z,135.70
2018-11-05T06:55:34.071Z,72.60
2018-11-05T06:56:34.019Z,92.10
2018-11-05T06:57:34.046Z,76.00
2018-11-05T06:58:34.038Z,109.10
2018-11-05T06:59:34.013Z,75.20
2018-11-05T07:00:34.015Z,67.60
2018-11-05T07:01:33.968Z,92.40
2018-11-05T07:02:34.018Z,69.80
2018-11-05T07:03:33.981Z,64.20
2018-11-05T07:04:33.961Z,69.20
2018-11-05T07:05:33.960Z,70.20
2018-11-05T07:06:33.910Z,75.50
2018-11-05T07:07:33.911Z,66.40
2018-11-05T07:08:33.893Z,67.50
2018-11-05T07:09:33.878Z,57.20
2018-11-05T07:10:33.880Z,63.60
2018-11-05T07:11:34.048Z,68.20
2018-11-05T07:12:33.843Z,74.90
2018-11-05T07:13:33.843Z,73.20
2018-11-05T07:14:33.819Z,76.30
2018-11-05T07:15:33.840Z,81.60
2018-11-05T07:16:33.808Z,65.50
2018-11-05T07:17:33.791Z,69.90
2018-11-05T07:18:33.967Z,69.50
2018-11-05T07:19:33.912Z,67.30
2018-11-05T07:20:33.774Z,68.20
2018-11-05T07:21:33.746Z,66.00
2018-11-05T07:22:33.737Z,60.50
2018-11-05T07:23:33.732Z,66.80
2018-11-05T07:24:33.718Z,74.90
2018-11-05T07:25:33.731Z,66.40
2018-11-05T07:26:33.755Z,60.20
2018-11-05T07:27:33.705Z,57.30
2018-11-05T07:28:33.672Z,72.30
2018-11-05T07:29:33.663Z,66.40
2018-11-05T07:30:33.645Z,67.10
2018-11-05T07:31:33.661Z,71.10
2018-11-05T07:32:33.641Z,60.60
2018-11-05T07:33:33.735Z,70.80
2018-11-05T07:34:33.710Z,73.80
2018-11-05T07:35:33.592Z,62.50
2018-11-05T07:36:33.599Z,65.40
2018-11-05T07:37:33.572Z,58.80
2018-11-05T07:38:33.566Z,63.80
2018-11-05T07:39:33.552Z,62.90
2018-11-05T07:40:33.539Z,65.70
2018-11-05T07:41:33.549Z,68.00
2018-11-05T07:42:33.558Z,64.20
2018-11-05T07:43:33.528Z,61.40
2018-11-05T07:44:33.494Z,68.60
2018-11-05T07:45:33.485Z,81.60
2018-11-05T07:46:33.479Z,73.00
2018-11-05T07:47:33.457Z,74.90
2018-11-05T07:48:33.469Z,68.10
2018-11-05T07:49:33.458Z,69.10
2018-11-05T07:50:33.429Z,62.70
2018-11-05T07:51:33.415Z,60.40
2018-11-05T07:52:33.406Z,60.70
2018-11-05T07:53:33.435Z,73.60
2018-11-05T07:54:33.513Z,65.30
2018-11-05T07:55:33.370Z,77.00
2018-11-05T07:56:33.407Z,73.20
2018-11-05T07:57:33.346Z,68.20
2018-11-05T07:58:33.336Z,64.30
2018-11-05T07:59:33.370Z,62.40
2018-11-05T08:00:33.320Z,66.30
2018-11-05T08:01:33.312Z,66.80
2018-11-05T08:02:33.295Z,68.20
2018-11-05T08:03:33.287Z,65.20
2018-11-05T08:04:33.291Z,63.90
2018-11-05T08:05:33.285Z,60.20
2018-11-05T08:06:33.261Z,62.30
2018-11-05T08:07:33.243Z,66.10
2018-11-05T08:08:33.259Z,62.60
2018-11-05T08:09:33.231Z,65.90
2018-11-05T08:10:33.210Z,66.90
2018-11-05T08:11:33.196Z,63.70
2018-11-05T08:12:33.197Z,68.50
2018-11-05T08:13:33.190Z,62.20
2018-11-05T08:14:33.255Z,65.60
2018-11-05T08:15:33.150Z,63.60
2018-11-05T08:16:33.156Z,64.10
2018-11-05T08:17:33.147Z,68.00
2018-11-05T08:18:33.123Z,69.40
2018-11-05T08:19:33.131Z,59.30
2018-11-05T08:20:33.099Z,69.50
2018-11-05T08:21:33.090Z,73.30
2018-11-05T08:22:33.076Z,71.20
2018-11-05T08:23:33.065Z,74.50
2018-11-05T08:24:33.082Z,77.50
2018-11-05T08:25:33.052Z,81.10
2018-11-05T08:26:33.118Z,75.00
2018-11-05T08:27:33.027Z,71.00
2018-11-05T08:28:33.028Z,69.80
2018-11-05T08:29:33.053Z,68.20
2018-11-05T08:30:33.000Z,64.60
2018-11-05T08:31:33.006Z,67.40
2018-11-05T08:32:33.004Z,63.10
2018-11-05T08:33:32.961Z,64.80
2018-11-05T08:34:32.947Z,70.40
2018-11-05T08:35:32.930Z,67.00
2018-11-05T08:36:32.960Z,69.60
2018-11-05T08:37:32.911Z,78.00
2018-11-05T08:38:32.901Z,76.60
2018-11-05T08:39:32.898Z,76.50
2018-11-05T08:40:32.885Z,72.40
2018-11-05T08:41:33.048Z,75.00
2018-11-05T08:42:32.856Z,71.90
2018-11-05T08:43:32.849Z,74.40
2018-11-05T08:44:32.833Z,78.80
2018-11-05T08:45:32.845Z,70.00
2018-11-05T08:46:32.840Z,68.20
2018-11-05T08:47:32.812Z,76.50
2018-11-05T08:48:32.791Z,82.20
2018-11-05T08:49:32.797Z,67.70
2018-11-05T08:50:40.244Z,68.00
2018-11-05T08:51:33.094Z,75.60
2018-11-05T08:52:32.749Z,75.30
2018-11-05T08:53:40.366Z,79.20
2018-11-05T08:54:32.727Z,74.70
2018-11-05T08:55:32.712Z,73.30
2018-11-05T08:56:32.722Z,73.10
2018-11-05T08:57:32.744Z,73.40
2018-11-05T08:58:32.680Z,71.20
2018-11-05T08:59:32.671Z,72.60
2018-11-05T09:00:32.666Z,72.30
2018-11-05T09:01:32.657Z,74.50
2018-11-05T09:02:32.655Z,75.10
2018-11-05T09:03:32.658Z,69.10
2018-11-05T09:04:32.622Z,71.30
2018-11-05T09:05:32.629Z,72.60
2018-11-05T09:06:32.618Z,75.50
2018-11-05T09:07:32.613Z,69.60
2018-11-05T09:08:32.592Z,73.30
2018-11-05T09:09:32.618Z,66.70
2018-11-05T09:10:32.707Z,68.50
2018-11-05T09:11:32.914Z,69.30
2018-11-05T09:12:32.554Z,69.60
2018-11-05T09:13:32.516Z,69.60
2018-11-05T09:14:32.510Z,69.50
2018-11-05T09:15:32.528Z,72.80
2018-11-05T09:16:32.486Z,74.60
2018-11-05T09:17:32.488Z,77.90
2018-11-05T09:18:32.473Z,67.10
2018-11-05T09:19:32.449Z,68.70
2018-11-05T09:20:32.475Z,66.50
2018-11-05T09:21:32.422Z,64.90
2018-11-05T09:22:32.454Z,67.80
2018-11-05T09:24:26.501Z,65.20
2018-11-05T09:25:26.466Z,68.20
2018-11-05T09:26:26.460Z,66.70
2018-11-05T09:27:26.488Z,69.90
2018-11-05T09:28:26.432Z,73.00
2018-11-05T09:29:26.425Z,64.30
2018-11-05T09:30:26.435Z,68.00
2018-11-05T09:31:26.397Z,70.50
2018-11-05T09:32:26.400Z,73.60
2018-11-05T09:33:26.404Z,66.50
2018-11-05T09:34:26.364Z,72.70
2018-11-05T09:35:26.354Z,69.10
2018-11-05T09:36:26.345Z,67.60
2018-11-05T09:37:26.370Z,69.00
2018-11-05T09:38:26.334Z,72.30
2018-11-05T09:39:26.318Z,72.40
2018-11-05T09:40:26.305Z,69.60
2018-11-05T09:41:26.290Z,73.20
2018-11-05T09:42:26.327Z,74.00
2018-11-05T09:43:26.303Z,71.30
2018-11-05T09:44:26.286Z,67.50
2018-11-05T09:45:26.256Z,69.80
2018-11-05T09:46:26.264Z,65.00
2018-11-05T09:47:26.268Z,64.20
2018-11-05T09:48:26.273Z,64.90
2018-11-05T09:49:26.239Z,64.70
2018-11-05T09:50:26.273Z,63.30
2018-11-05T09:51:26.186Z,61.50
2018-11-05T09:52:26.190Z,63.40
2018-11-05T09:53:26.181Z,62.20
2018-11-05T09:54:26.175Z,65.00
2018-11-05T09:55:26.190Z,67.70
2018-11-05T09:56:26.122Z,63.60
2018-11-05T09:57:26.233Z,64.70
2018-11-05T09:58:26.136Z,61.70
2018-11-05T09:59:26.087Z,63.40
2018-11-05T10:00:26.122Z,61.70
2018-11-05T10:01:26.078Z,65.00
2018-11-05T10:02:33.764Z,62.20
2018-11-05T10:03:26.364Z,60.30
2018-11-05T10:04:26.179Z,59.60
2018-11-05T10:05:27.290Z,60.40
2018-11-05T10:06:26.026Z,64.20
2018-11-05T10:07:26.022Z,61.10
2018-11-05T10:08:26.016Z,61.50
2018-11-05T10:09:26.009Z,60.20
2018-11-05T10:10:26.040Z,62.30
2018-11-05T10:11:25.980Z,59.80
2018-11-05T10:12:25.995Z,60.90
2018-11-05T10:13:25.968Z,59.70
2018-11-05T10:14:25.959Z,59.80
2018-11-05T10:15:25.913Z,58.30
2018-11-05T10:16:25.942Z,56.90
2018-11-05T10:17:25.900Z,56.70
2018-11-05T10:18:25.895Z,56.10
2018-11-05T10:19:25.892Z,57.80
2018-11-05T10:20:25.858Z,55.50
2018-11-05T10:21:25.851Z,53.70
2018-11-05T10:22:25.888Z,52.20
2018-11-05T10:23:25.856Z,51.40
2018-11-05T10:24:25.916Z,53.20
2018-11-05T10:25:25.816Z,51.10
2018-11-05T10:26:25.822Z,54.20
2018-11-05T10:27:25.792Z,50.60
2018-11-05T10:28:25.782Z,53.00
2018-11-05T10:29:25.776Z,49.60
2018-11-05T10:30:25.750Z,52.60
2018-11-05T10:31:25.784Z,50.90
2018-11-05T10:32:25.730Z,53.80
2018-11-05T10:33:25.793Z,51.60
2018-11-05T10:34:25.756Z,52.60
2018-11-05T10:35:25.714Z,52.40
2018-11-05T10:36:25.682Z,51.50
2018-11-05T10:37:25.683Z,51.30
2018-11-05T10:38:25.690Z,51.50
2018-11-05T10:39:25.681Z,51.30
2018-11-05T10:40:25.845Z,49.90
2018-11-05T10:41:25.747Z,51.70
2018-11-05T10:42:25.710Z,51.00
2018-11-05T10:43:25.676Z,49.40
2018-11-05T10:44:25.601Z,51.10
2018-11-05T10:45:25.624Z,50.10
2018-11-05T10:46:25.670Z,52.30
2018-11-05T10:47:25.562Z,55.30
2018-11-05T10:48:25.553Z,53.60
2018-11-05T10:49:25.543Z,53.10
2018-11-05T10:50:25.657Z,53.70
2018-11-05T10:51:25.694Z,53.40
2018-11-05T10:52:25.592Z,54.00
2018-11-05T10:53:25.508Z,55.70
2018-11-05T10:54:25.567Z,53.30
2018-11-05T10:55:25.506Z,49.60
2018-11-05T10:56:25.462Z,54.90
2018-11-05T10:57:25.460Z,51.30
2018-11-05T10:58:25.439Z,52.50
2018-11-05T10:59:25.437Z,50.30
2018-11-05T11:00:25.458Z,48.40
2018-11-05T11:01:25.410Z,49.50
2018-11-05T11:02:25.405Z,48.00
2018-11-05T11:03:25.391Z,46.20
2018-11-05T11:04:25.395Z,46.90
2018-11-05T11:05:25.384Z,47.30
2018-11-05T11:06:25.368Z,45.50
2018-11-05T11:07:25.378Z,47.40
2018-11-05T11:08:25.346Z,45.50
2018-11-05T11:09:25.370Z,47.00
2018-11-05T11:10:25.365Z,47.90
2018-11-05T11:11:25.352Z,46.80
2018-11-05T11:12:25.308Z,44.20
2018-11-05T11:13:25.300Z,43.80
2018-11-05T11:14:25.269Z,44.50
2018-11-05T11:15:25.407Z,47.00
2018-11-05T11:16:25.263Z,47.70
2018-11-05T11:17:25.236Z,45.30
2018-11-05T11:18:25.230Z,46.60
2018-11-05T11:19:25.237Z,46.20
2018-11-05T11:20:25.206Z,44.70
2018-11-05T11:21:25.213Z,45.30
2018-11-05T11:22:25.192Z,47.90
2018-11-05T11:23:25.172Z,46.50
2018-11-05T11:24:25.168Z,44.50
2018-11-05T11:25:25.159Z,45.90
2018-11-05T11:26:25.160Z,45.50
2018-11-05T11:27:25.134Z,46.40
2018-11-05T11:28:25.296Z,45.10
2018-11-05T11:29:25.257Z,46.00
2018-11-05T11:30:25.113Z,47.30
2018-11-05T11:31:25.103Z,46.00
2018-11-05T11:32:25.068Z,45.90
2018-11-05T11:33:25.064Z,46.40
2018-11-05T11:34:25.052Z,45.10
2018-11-05T11:35:25.044Z,49.30
2018-11-05T11:36:25.080Z,46.50
2018-11-05T11:37:32.616Z,44.20
2018-11-05T11:38:25.004Z,44.30
2018-11-05T11:39:25.004Z,44.00
2018-11-05T11:40:25.048Z,44.40
2018-11-05T11:41:24.971Z,43.90
2018-11-05T11:42:24.998Z,44.90
2018-11-05T11:43:24.958Z,42.20
2018-11-05T11:44:24.999Z,42.60
2018-11-05T11:45:24.928Z,42.40
2018-11-05T11:46:24.918Z,42.20
2018-11-05T11:47:24.932Z,40.60
2018-11-05T11:48:24.915Z,44.00
2018-11-05T11:49:24.908Z,42.70
2018-11-05T11:50:24.911Z,43.80
2018-11-05T11:51:24.862Z,41.10
2018-11-05T11:52:24.917Z,44.20
2018-11-05T11:53:24.944Z,41.90
2018-11-05T11:54:24.862Z,42.10
2018-11-05T11:55:24.824Z,43.60
2018-11-05T11:56:24.845Z,43.20
2018-11-05T11:57:24.857Z,43.20
2018-11-05T11:58:24.843Z,42.50
2018-11-05T11:59:24.859Z,40.10
2018-11-05T12:00:24.764Z,40.30
2018-11-05T12:01:24.758Z,41.40
2018-11-05T12:02:24.800Z,41.40
2018-11-05T12:03:24.739Z,40.50
2018-11-05T12:04:24.748Z,42.90
2018-11-05T12:05:24.904Z,42.40
2018-11-05T12:06:24.714Z,40.70
2018-11-05T12:07:24.726Z,41.40
2018-11-05T12:08:24.743Z,40.40
2018-11-05T12:09:24.669Z,40.00
2018-11-05T12:10:24.659Z,40.40
2018-11-05T12:11:24.647Z,40.40
2018-11-05T12:12:24.637Z,42.00
2018-11-05T12:13:24.655Z,44.30
2018-11-05T12:14:24.663Z,42.20
2018-11-05T12:15:24.612Z,39.50
2018-11-05T12:16:24.622Z,43.00
2018-11-05T12:17:24.599Z,39.30
2018-11-05T12:18:24.606Z,40.80
2018-11-05T12:19:24.573Z,42.50
2018-11-05T12:20:24.644Z,39.10
2018-11-05T12:21:24.547Z,40.90
2018-11-05T12:22:24.537Z,38.00
2018-11-05T12:23:24.559Z,37.00
2018-11-05T12:24:24.569Z,37.00
2018-11-05T12:25:24.504Z,36.50
2018-11-05T12:26:24.518Z,37.10
2018-11-05T12:27:24.490Z,36.80
2018-11-05T12:28:24.503Z,39.10
2018-11-05T12:29:24.509Z,37.30
2018-11-05T12:30:24.449Z,35.70
2018-11-05T12:31:24.470Z,36.00
2018-11-05T12:32:24.431Z,35.90
2018-11-05T12:33:24.410Z,39.20
2018-11-05T12:34:24.424Z,36.10
2018-11-05T12:35:24.389Z,34.80
2018-11-05T12:36:24.395Z,37.20
2018-11-05T12:37:24.399Z,37.40
2018-11-05T12:38:24.409Z,37.90
2018-11-05T12:39:24.360Z,36.60
2018-11-05T12:40:24.343Z,37.70
2018-11-05T12:41:24.324Z,35.70
2018-11-05T12:42:24.324Z,32.70
2018-11-05T12:43:24.321Z,34.00
2018-11-05T12:44:24.347Z,33.90
2018-11-05T12:45:24.281Z,34.60
2018-11-05T12:46:24.296Z,35.60
2018-11-05T12:47:24.257Z,34.60